createdAt,value
2017-07-15T00:00:23.703Z,13.85
2017-07-15T00:02:51.455Z,13.88
2017-07-15T00:05:19.143Z,13.78
2017-07-15T00:07:46.905Z,13.79
2017-07-15T00:10:14.623Z,13.82
2017-07-15T00:12:42.377Z,13.89
2017-07-15T00:15:10.057Z,13.80
2017-07-15T00:17:37.804Z,13.80
2017-07-15T00:20:06.251Z,13.67
2017-07-15T00:22:33.970Z,13.65
2017-07-15T00:25:01.776Z,13.52
2017-07-15T00:27:29.513Z,13.54
2017-07-15T00:29:57.283Z,13.57
2017-07-15T00:32:25.021Z,13.56
2017-07-15T00:34:52.709Z,13.60
2017-07-15T00:37:20.544Z,13.54
2017-07-15T00:39:48.246Z,13.37
2017-07-15T00:42:15.947Z,13.53
2017-07-15T00:44:43.709Z,13.70
2017-07-15T00:47:11.413Z,13.66
2017-07-15T00:49:39.176Z,13.69
2017-07-15T00:52:06.862Z,13.76
2017-07-15T00:54:34.656Z,13.75
2017-07-15T00:57:02.368Z,13.73
2017-07-15T00:59:30.077Z,13.59
2017-07-15T01:01:57.808Z,13.54
2017-07-15T01:04:25.539Z,13.66
2017-07-15T01:06:53.315Z,13.69
2017-07-15T01:09:21.034Z,13.79
2017-07-15T01:11:48.717Z,13.79
2017-07-15T01:14:16.514Z,13.65
2017-07-15T01:16:44.281Z,13.71
2017-07-15T01:19:11.977Z,13.69
2017-07-15T01:21:39.680Z,13.64
2017-07-15T01:24:07.539Z,13.37
2017-07-15T01:26:35.254Z,13.39
2017-07-15T01:29:02.972Z,13.56
2017-07-15T01:31:30.788Z,13.54
2017-07-15T01:33:58.595Z,13.37
2017-07-15T01:36:26.376Z,13.49
2017-07-15T01:38:54.085Z,13.62
2017-07-15T01:41:21.828Z,13.64
2017-07-15T01:43:49.637Z,13.63
2017-07-15T01:46:17.332Z,13.65
2017-07-15T01:48:45.069Z,13.64
2017-07-15T01:51:12.782Z,13.61
2017-07-15T01:53:40.606Z,13.59
2017-07-15T01:56:08.419Z,13.59
2017-07-15T01:58:36.200Z,13.56
2017-07-15T02:01:04.065Z,13.55
2017-07-15T02:03:31.774Z,13.54
2017-07-15T02:05:59.472Z,13.58
2017-07-15T02:08:27.257Z,13.44
2017-07-15T02:10:55.587Z,13.45
2017-07-15T02:13:23.391Z,13.49
2017-07-15T02:15:51.127Z,13.39
2017-07-15T02:18:18.890Z,13.36
2017-07-15T02:20:47.275Z,13.44
2017-07-15T02:23:15.089Z,13.40
2017-07-15T02:25:43.862Z,13.31
2017-07-15T02:28:11.623Z,13.48
2017-07-15T02:30:39.376Z,13.47
2017-07-15T02:33:07.082Z,13.40
2017-07-15T02:35:34.837Z,13.32
2017-07-15T02:38:02.568Z,13.31
2017-07-15T02:40:30.285Z,13.27
2017-07-15T02:42:58.031Z,13.30
2017-07-15T02:45:25.759Z,13.28
2017-07-15T02:47:53.567Z,13.24
2017-07-15T02:50:21.258Z,13.37
2017-07-15T02:52:49.482Z,13.38
2017-07-15T02:55:17.199Z,13.36
2017-07-15T02:57:44.938Z,13.15
2017-07-15T03:00:12.695Z,13.23
2017-07-15T03:02:40.452Z,13.25
2017-07-15T03:05:08.163Z,13.25
2017-07-15T03:07:35.902Z,13.17
2017-07-15T03:10:03.669Z,13.21
2017-07-15T03:12:31.619Z,13.09
2017-07-15T03:14:59.322Z,12.88
2017-07-15T03:17:27.200Z,12.88
2017-07-15T03:19:54.993Z,12.85
2017-07-15T03:22:22.769Z,12.86
2017-07-15T03:24:50.528Z,12.86
2017-07-15T03:27:29.980Z,12.69
2017-07-15T03:29:57.697Z,12.58
2017-07-15T03:32:25.499Z,12.58
2017-07-15T03:34:53.211Z,12.60
2017-07-15T03:37:20.953Z,12.68
2017-07-15T03:39:48.755Z,12.78
2017-07-15T03:42:16.450Z,12.88
2017-07-15T03:44:44.217Z,12.84
2017-07-15T03:47:11.972Z,12.74
2017-07-15T03:49:39.954Z,12.72
2017-07-15T03:52:07.685Z,12.78
2017-07-15T03:54:35.380Z,12.72
2017-07-15T03:57:03.136Z,12.77
2017-07-15T03:59:30.815Z,12.78
2017-07-15T04:01:58.599Z,12.79
2017-07-15T04:04:26.377Z,12.82
2017-07-15T04:06:54.244Z,12.83
2017-07-15T04:09:22.000Z,12.73
2017-07-15T04:11:49.805Z,13.00
2017-07-15T04:14:17.531Z,13.19
2017-07-15T04:16:45.305Z,12.96
2017-07-15T04:19:14.183Z,12.80
2017-07-15T04:21:41.953Z,12.68
2017-07-15T04:24:09.748Z,12.56
2017-07-15T04:26:37.527Z,12.68
2017-07-15T04:29:05.239Z,12.74
2017-07-15T04:31:33.093Z,12.75
2017-07-15T04:34:00.852Z,12.74
2017-07-15T04:36:28.576Z,12.92
2017-07-15T04:38:56.321Z,12.76
2017-07-15T04:41:24.043Z,12.81
2017-07-15T04:43:51.790Z,12.57
2017-07-15T04:46:19.538Z,12.37
2017-07-15T04:48:47.229Z,12.39
2017-07-15T04:51:15.003Z,12.30
2017-07-15T04:53:42.728Z,12.23
2017-07-15T04:56:10.426Z,12.13
2017-07-15T04:58:38.183Z,12.17
2017-07-15T05:01:05.917Z,12.33
2017-07-15T05:03:33.616Z,12.39
2017-07-15T05:06:01.425Z,12.44
2017-07-15T05:08:29.168Z,12.50
2017-07-15T05:10:56.919Z,12.64
2017-07-15T05:13:24.793Z,12.71
2017-07-15T05:15:52.509Z,12.78
2017-07-15T05:18:20.209Z,12.75
2017-07-15T05:20:47.952Z,12.77
2017-07-15T05:23:15.641Z,12.77
2017-07-15T05:25:43.420Z,12.71
2017-07-15T05:28:11.129Z,12.64
2017-07-15T05:30:40.008Z,12.78
2017-07-15T05:33:07.809Z,12.74
2017-07-15T05:35:35.498Z,12.82
2017-07-15T05:38:03.188Z,12.86
2017-07-15T05:40:31.062Z,12.95
2017-07-15T05:42:58.764Z,12.98
2017-07-15T05:45:26.473Z,13.05
2017-07-15T05:47:54.270Z,12.96
2017-07-15T05:50:21.998Z,12.90
2017-07-15T05:52:49.781Z,12.84
2017-07-15T05:55:17.549Z,12.85
2017-07-15T05:57:45.357Z,12.88
2017-07-15T06:00:13.194Z,12.84
2017-07-15T06:02:41.089Z,12.82
2017-07-15T06:05:08.860Z,12.86
2017-07-15T06:07:36.596Z,12.90
2017-07-15T06:10:04.346Z,12.99
2017-07-15T06:12:32.171Z,13.10
2017-07-15T06:15:00.011Z,13.18
2017-07-15T06:17:27.773Z,13.22
2017-07-15T06:19:55.639Z,13.27
2017-07-15T06:22:23.475Z,13.35
2017-07-15T06:24:51.201Z,13.42
2017-07-15T06:27:18.946Z,13.39
2017-07-15T06:29:47.003Z,13.45
2017-07-15T06:32:14.804Z,13.50
2017-07-15T06:34:42.627Z,13.57
2017-07-15T06:37:10.427Z,13.59
2017-07-15T06:39:38.179Z,13.73
2017-07-15T06:42:05.988Z,13.72
2017-07-15T06:44:33.872Z,13.76
2017-07-15T06:47:01.600Z,13.74
2017-07-15T06:49:29.354Z,13.58
2017-07-15T06:51:57.126Z,13.21
2017-07-15T06:54:24.893Z,13.27
2017-07-15T06:56:52.694Z,13.22
2017-07-15T06:59:20.468Z,13.28
2017-07-15T07:01:48.200Z,13.38
2017-07-15T07:04:16.047Z,13.03
2017-07-15T07:06:43.937Z,13.10
2017-07-15T07:09:11.845Z,13.20
2017-07-15T07:11:39.745Z,13.17
2017-07-15T07:14:07.490Z,13.27
2017-07-15T07:16:35.238Z,13.31
2017-07-15T07:19:03.643Z,13.37
2017-07-15T07:21:31.427Z,13.41
2017-07-15T07:23:59.363Z,13.32
2017-07-15T07:26:27.177Z,13.48
2017-07-15T07:28:55.286Z,13.67
2017-07-15T07:31:23.099Z,13.50
2017-07-15T07:33:50.951Z,13.44
2017-07-15T07:36:18.804Z,13.25
2017-07-15T07:38:46.699Z,13.38
2017-07-15T07:41:14.542Z,13.33
2017-07-15T07:43:42.482Z,13.15
2017-07-15T07:46:10.249Z,13.32
2017-07-15T07:48:38.090Z,13.25
2017-07-15T07:51:05.927Z,13.23
2017-07-15T07:53:35.007Z,13.32
2017-07-15T07:56:02.750Z,13.41
2017-07-15T07:58:30.461Z,13.42
2017-07-15T08:00:58.302Z,13.44
2017-07-15T08:03:26.019Z,13.84
2017-07-15T08:05:53.752Z,13.89
2017-07-15T08:08:21.770Z,13.75
2017-07-15T08:10:49.620Z,14.26
2017-07-15T08:13:17.368Z,14.42
2017-07-15T08:15:45.114Z,14.81
2017-07-15T08:18:13.002Z,15.08
2017-07-15T08:20:40.815Z,14.84
2017-07-15T08:23:08.871Z,14.78
2017-07-15T08:25:36.793Z,14.78
2017-07-15T08:28:04.576Z,14.79
2017-07-15T08:30:32.453Z,15.04
2017-07-15T08:33:00.184Z,15.13
2017-07-15T08:35:27.984Z,15.20
2017-07-15T08:37:55.829Z,14.95
2017-07-15T08:40:23.647Z,15.06
2017-07-15T08:42:51.434Z,15.23
2017-07-15T08:45:19.239Z,14.84
2017-07-15T08:47:47.052Z,14.58
2017-07-15T08:50:14.812Z,14.59
2017-07-15T08:52:42.510Z,14.49
2017-07-15T08:55:10.276Z,14.14
2017-07-15T08:57:38.097Z,14.27
2017-07-15T09:00:05.841Z,13.94
2017-07-15T09:02:33.692Z,13.99
2017-07-15T09:05:02.380Z,14.07
2017-07-15T09:07:30.104Z,14.05
2017-07-15T09:09:57.881Z,14.31
2017-07-15T09:12:25.753Z,14.80
2017-07-15T09:14:53.510Z,14.86
2017-07-15T09:17:21.382Z,14.86
2017-07-15T09:19:49.093Z,14.41
2017-07-15T09:22:16.822Z,14.46
2017-07-15T09:24:44.589Z,15.25
2017-07-15T09:27:12.377Z,15.90
2017-07-15T09:29:40.102Z,15.66
2017-07-15T09:32:07.857Z,16.16
2017-07-15T09:34:35.575Z,15.92
2017-07-15T09:37:03.385Z,15.96
2017-07-15T09:39:31.135Z,15.89
2017-07-15T09:41:58.942Z,15.38
2017-07-15T09:44:26.698Z,15.29
2017-07-15T09:46:54.439Z,15.06
2017-07-15T09:49:23.491Z,15.07
2017-07-15T09:51:51.286Z,14.82
2017-07-15T09:54:19.033Z,14.67
2017-07-15T09:56:46.817Z,14.93
2017-07-15T09:59:14.621Z,14.63
2017-07-15T10:01:42.430Z,14.82
2017-07-15T10:04:10.226Z,14.74
2017-07-15T10:06:37.973Z,14.78
2017-07-15T10:09:05.729Z,14.76
2017-07-15T10:11:34.809Z,14.96
2017-07-15T10:14:02.532Z,15.12
2017-07-15T10:16:30.346Z,15.20
2017-07-15T10:18:58.083Z,15.53
2017-07-15T10:21:26.811Z,15.15
2017-07-15T10:23:54.609Z,15.23
2017-07-15T10:26:22.335Z,15.40
2017-07-15T10:28:50.086Z,15.32
2017-07-15T10:31:17.882Z,14.99
2017-07-15T10:33:45.665Z,14.65
2017-07-15T10:36:14.341Z,14.75
2017-07-15T10:38:42.134Z,14.87
2017-07-15T10:41:09.958Z,14.66
2017-07-15T10:43:37.672Z,14.66
2017-07-15T10:46:06.289Z,14.49
2017-07-15T10:48:34.028Z,14.60
2017-07-15T10:51:01.986Z,14.52
2017-07-15T10:53:29.818Z,14.65
2017-07-15T10:55:58.304Z,14.82
2017-07-15T10:58:26.151Z,14.88
2017-07-15T11:00:53.852Z,15.06
2017-07-15T11:03:21.635Z,15.13
2017-07-15T11:05:49.345Z,15.34
2017-07-15T11:08:17.172Z,15.21
2017-07-15T11:10:45.041Z,15.16
2017-07-15T11:13:12.971Z,15.04
2017-07-15T11:15:40.691Z,15.24
2017-07-15T11:18:09.009Z,15.55
2017-07-15T11:20:36.763Z,16.21
2017-07-15T11:23:04.484Z,16.15
2017-07-15T11:25:32.334Z,16.04
2017-07-15T11:28:00.165Z,15.63
2017-07-15T11:30:27.893Z,16.02
2017-07-15T11:32:56.522Z,16.00
2017-07-15T11:35:25.244Z,16.07
2017-07-15T11:37:53.857Z,15.88
2017-07-15T11:40:21.618Z,15.67
2017-07-15T11:42:49.415Z,15.38
2017-07-15T11:45:17.190Z,15.33
2017-07-15T11:47:45.005Z,15.40
2017-07-15T11:50:12.792Z,15.25
2017-07-15T11:52:40.528Z,15.67
2017-07-15T11:55:08.399Z,16.36
2017-07-15T11:57:36.180Z,16.90
2017-07-15T12:00:03.985Z,16.95
2017-07-15T12:02:31.753Z,17.18
2017-07-15T12:04:59.541Z,16.84
2017-07-15T12:07:27.320Z,16.94
2017-07-15T12:09:55.033Z,16.68
2017-07-15T12:12:22.862Z,16.70
2017-07-15T12:14:50.589Z,16.78
2017-07-15T12:17:18.466Z,16.94
2017-07-15T12:19:46.238Z,16.72
2017-07-15T12:22:14.059Z,16.85
2017-07-15T12:24:41.863Z,16.86
2017-07-15T12:27:09.721Z,16.74
2017-07-15T12:29:37.524Z,16.81
2017-07-15T12:32:05.231Z,16.96
2017-07-15T12:34:33.016Z,17.46
2017-07-15T12:37:00.831Z,17.40
2017-07-15T12:39:28.642Z,16.81
2017-07-15T12:41:56.401Z,16.89
2017-07-15T12:44:24.120Z,16.95
2017-07-15T12:46:51.923Z,17.42
2017-07-15T12:49:19.729Z,17.46
2017-07-15T12:51:47.458Z,17.81
2017-07-15T12:54:15.243Z,17.71
2017-07-15T12:56:43.293Z,17.64
2017-07-15T12:59:11.078Z,17.49
2017-07-15T13:01:38.876Z,17.57
2017-07-15T13:04:06.608Z,17.83
2017-07-15T13:06:34.369Z,17.85
2017-07-15T13:09:02.195Z,18.46
2017-07-15T13:11:30.000Z,18.96
2017-07-15T13:13:57.728Z,18.76
2017-07-15T13:16:25.502Z,18.99
2017-07-15T13:18:53.243Z,18.76
2017-07-15T13:21:21.056Z,18.44
2017-07-15T13:23:48.822Z,18.50
2017-07-15T13:26:16.648Z,18.33
2017-07-15T13:28:44.461Z,18.29
2017-07-15T13:31:12.233Z,18.01
2017-07-15T13:33:39.994Z,17.78
2017-07-15T13:36:07.777Z,18.00
2017-07-15T13:38:35.570Z,18.38
2017-07-15T13:41:03.282Z,18.25
2017-07-15T13:43:31.055Z,17.85
2017-07-15T13:45:58.860Z,18.21
2017-07-15T13:48:26.667Z,19.05
2017-07-15T13:50:54.379Z,18.41
2017-07-15T13:53:22.692Z,18.94
2017-07-15T13:55:50.460Z,18.93
2017-07-15T13:58:18.178Z,18.65
2017-07-15T14:00:45.957Z,18.27
2017-07-15T14:03:13.807Z,17.90
2017-07-15T14:05:41.546Z,18.20
2017-07-15T14:08:09.387Z,18.47
2017-07-15T14:10:37.199Z,18.53
2017-07-15T14:13:04.926Z,18.02
2017-07-15T14:15:32.643Z,17.94
2017-07-15T14:18:00.422Z,17.73
2017-07-15T14:20:28.242Z,17.63
2017-07-15T14:22:56.039Z,17.58
2017-07-15T14:25:23.878Z,17.80
2017-07-15T14:27:51.634Z,17.57
2017-07-15T14:30:19.442Z,17.57
2017-07-15T14:32:47.168Z,17.84
2017-07-15T14:35:15.127Z,17.69
2017-07-15T14:37:42.887Z,17.95
2017-07-15T14:40:10.649Z,18.07
2017-07-15T14:42:38.450Z,18.08
2017-07-15T14:45:06.223Z,17.92
2017-07-15T14:47:34.018Z,17.78
2017-07-15T14:50:01.776Z,17.87
2017-07-15T14:52:29.495Z,17.89
2017-07-15T14:54:57.918Z,17.79
2017-07-15T14:57:25.626Z,17.63
2017-07-15T14:59:53.380Z,17.62
2017-07-15T15:02:21.115Z,17.58
2017-07-15T15:04:49.920Z,17.36
2017-07-15T15:07:17.684Z,17.60
2017-07-15T15:09:45.474Z,17.57
2017-07-15T15:12:13.308Z,17.88
2017-07-15T15:14:41.065Z,17.55
2017-07-15T15:17:08.792Z,17.54
2017-07-15T15:19:36.561Z,17.58
2017-07-15T15:22:04.257Z,18.00
2017-07-15T15:24:32.050Z,18.05
2017-07-15T15:26:59.791Z,18.39
2017-07-15T15:29:27.531Z,18.63
2017-07-15T15:31:55.332Z,18.93
2017-07-15T15:34:23.079Z,18.90
2017-07-15T15:36:50.915Z,18.91
2017-07-15T15:39:18.783Z,18.97
2017-07-15T15:41:46.641Z,18.59
2017-07-15T15:44:15.368Z,18.64
2017-07-15T15:46:43.076Z,18.51
2017-07-15T15:49:10.809Z,18.27
2017-07-15T15:51:38.648Z,18.06
2017-07-15T15:54:06.406Z,17.80
2017-07-15T15:56:34.193Z,17.67
2017-07-15T15:59:01.893Z,17.67
2017-07-15T16:01:29.697Z,17.61
2017-07-15T16:03:57.391Z,17.70
2017-07-15T16:06:25.172Z,17.70
2017-07-15T16:08:52.885Z,17.44
2017-07-15T16:11:20.636Z,17.54
2017-07-15T16:13:48.611Z,17.61
2017-07-15T16:16:16.362Z,17.46
2017-07-15T16:18:44.192Z,17.50
2017-07-15T16:21:11.968Z,17.33
2017-07-15T16:23:39.723Z,17.17
2017-07-15T16:26:07.463Z,17.08
2017-07-15T16:28:35.233Z,17.04
2017-07-15T16:31:03.025Z,16.85
2017-07-15T16:33:30.777Z,16.83
2017-07-15T16:35:58.593Z,16.74
2017-07-15T16:38:26.376Z,16.80
2017-07-15T16:40:55.096Z,16.62
2017-07-15T16:43:22.898Z,16.64
2017-07-15T16:45:50.735Z,16.49
2017-07-15T16:48:18.512Z,16.61
2017-07-15T16:50:46.289Z,16.61
2017-07-15T16:53:14.096Z,16.49
2017-07-15T16:55:41.944Z,16.35
2017-07-15T16:58:09.649Z,16.31
2017-07-15T17:00:37.439Z,16.32
2017-07-15T17:03:05.167Z,16.44
2017-07-15T17:05:32.860Z,16.30
2017-07-15T17:08:00.637Z,16.09
2017-07-15T17:10:28.389Z,16.14
2017-07-15T17:12:56.193Z,16.17
2017-07-15T17:15:23.953Z,16.18
2017-07-15T17:17:51.790Z,16.57
2017-07-15T17:20:19.658Z,16.81
2017-07-15T17:22:47.425Z,17.18
2017-07-15T17:25:15.215Z,16.90
2017-07-15T17:27:42.947Z,16.46
2017-07-15T17:30:11.896Z,16.32
2017-07-15T17:32:39.719Z,16.25
2017-07-15T17:35:07.516Z,16.20
2017-07-15T17:37:35.286Z,16.09
2017-07-15T17:40:02.991Z,15.93
2017-07-15T17:42:30.780Z,15.87
2017-07-15T17:44:58.538Z,15.75
2017-07-15T17:47:26.394Z,15.78
2017-07-15T17:49:54.153Z,15.68
2017-07-15T17:52:21.885Z,15.48
2017-07-15T17:54:49.736Z,15.45
2017-07-15T17:57:17.488Z,15.51
2017-07-15T17:59:45.317Z,15.52
2017-07-15T18:02:13.048Z,15.57
2017-07-15T18:04:40.755Z,15.59
2017-07-15T18:07:08.527Z,15.48
2017-07-15T18:09:36.431Z,15.30
2017-07-15T18:12:04.195Z,15.41
2017-07-15T18:14:32.012Z,15.35
2017-07-15T18:16:59.841Z,15.21
2017-07-15T18:19:27.594Z,15.21
2017-07-15T18:21:55.405Z,14.96
2017-07-15T18:24:23.177Z,14.99
2017-07-15T18:26:50.879Z,14.85
2017-07-15T18:29:18.605Z,14.81
2017-07-15T18:31:46.438Z,14.64
2017-07-15T18:34:14.194Z,14.53
2017-07-15T18:36:41.997Z,14.55
2017-07-15T18:39:09.737Z,14.45
2017-07-15T18:41:37.539Z,14.42
2017-07-15T18:44:05.320Z,14.42
2017-07-15T18:46:33.053Z,14.29
2017-07-15T18:49:00.849Z,14.23
2017-07-15T18:51:28.622Z,14.10
2017-07-15T18:53:56.529Z,14.08
2017-07-15T18:56:25.194Z,13.93
2017-07-15T18:58:52.977Z,13.87
2017-07-15T19:01:20.961Z,13.83
2017-07-15T19:03:48.679Z,13.72
2017-07-15T19:06:16.437Z,13.57
2017-07-15T19:08:45.031Z,13.55
2017-07-15T19:11:13.049Z,13.73
2017-07-15T19:13:40.940Z,13.48
2017-07-15T19:16:08.702Z,13.44
2017-07-15T19:18:36.540Z,13.39
2017-07-15T19:21:04.301Z,13.36
2017-07-15T19:23:32.135Z,13.48
2017-07-15T19:25:59.924Z,13.29
2017-07-15T19:28:27.645Z,13.14
2017-07-15T19:30:55.397Z,13.11
2017-07-15T19:33:23.882Z,13.16
2017-07-15T19:35:51.603Z,12.99
2017-07-15T19:38:19.414Z,13.13
2017-07-15T19:40:47.237Z,13.10
2017-07-15T19:43:16.123Z,13.13
2017-07-15T19:45:44.016Z,13.07
2017-07-15T19:48:11.847Z,12.99
2017-07-15T19:50:39.571Z,13.01
2017-07-15T19:53:07.375Z,12.93
2017-07-15T19:55:35.614Z,13.00
2017-07-15T19:58:03.418Z,13.06
2017-07-15T20:00:31.174Z,12.81
2017-07-15T20:02:59.022Z,12.85
2017-07-15T20:05:26.774Z,12.88
2017-07-15T20:07:56.313Z,12.90
2017-07-15T20:10:24.123Z,12.89
2017-07-15T20:12:51.986Z,12.82
2017-07-15T20:15:19.715Z,12.93
2017-07-15T20:17:47.445Z,12.95
2017-07-15T20:20:15.218Z,12.93
2017-07-15T20:22:43.318Z,12.89
2017-07-15T20:25:11.047Z,12.91
2017-07-15T20:27:38.843Z,12.84
2017-07-15T20:30:06.634Z,12.89
2017-07-15T20:32:34.416Z,12.91
2017-07-15T20:35:02.272Z,12.85
2017-07-15T20:37:30.661Z,12.76
2017-07-15T20:39:58.443Z,12.87
2017-07-15T20:42:27.149Z,12.91
2017-07-15T20:44:54.905Z,12.93
2017-07-15T20:47:22.632Z,12.94
2017-07-15T20:49:51.245Z,12.92
2017-07-15T20:52:24.403Z,12.98
2017-07-15T20:54:52.191Z,13.02
2017-07-15T20:57:19.961Z,12.97
2017-07-15T20:59:47.805Z,12.99
2017-07-15T21:02:15.600Z,12.98
2017-07-15T21:04:43.378Z,12.91
2017-07-15T21:07:11.221Z,12.89
2017-07-15T21:09:39.255Z,12.92
2017-07-15T21:12:07.014Z,12.92
2017-07-15T21:14:34.839Z,12.94
2017-07-15T21:17:02.613Z,13.06
2017-07-15T21:19:30.454Z,13.08
2017-07-15T21:21:58.188Z,12.98
2017-07-15T21:24:25.943Z,13.01
2017-07-15T21:26:53.783Z,12.95
2017-07-15T21:29:21.531Z,12.95
2017-07-15T21:31:49.241Z,12.99
2017-07-15T21:34:17.047Z,13.06
2017-07-15T21:36:44.761Z,13.03
2017-07-15T21:39:12.558Z,13.07
2017-07-15T21:41:40.360Z,13.11
2017-07-15T21:44:08.087Z,13.00
2017-07-15T21:46:35.823Z,12.94
2017-07-15T21:49:03.587Z,12.90
2017-07-15T21:51:31.444Z,12.93
2017-07-15T21:53:59.234Z,12.96
2017-07-15T21:56:26.941Z,12.94
2017-07-15T21:58:54.764Z,12.99
2017-07-15T22:01:22.552Z,13.01
2017-07-15T22:03:50.247Z,13.04
2017-07-15T22:06:18.011Z,13.04
2017-07-15T22:08:45.763Z,12.94
2017-07-15T22:17:09.033Z,12.84
2017-07-15T22:19:36.785Z,12.76
2017-07-15T22:22:04.618Z,12.75
2017-07-15T22:24:32.373Z,12.78
2017-07-15T22:27:00.095Z,12.83
2017-07-15T22:29:27.900Z,12.82
2017-07-15T22:31:55.655Z,12.81
2017-07-15T22:34:23.395Z,12.78
2017-07-15T22:36:51.140Z,12.77
2017-07-15T22:39:18.932Z,12.77
2017-07-15T22:41:46.756Z,12.78
2017-07-15T22:44:14.494Z,12.87
2017-07-15T22:46:42.248Z,12.61
2017-07-15T22:49:10.038Z,12.56
2017-07-15T22:51:37.841Z,12.49
2017-07-15T22:54:05.532Z,12.43
2017-07-15T22:56:33.398Z,12.60
2017-07-15T22:59:02.094Z,12.69
2017-07-15T23:01:29.795Z,12.60
2017-07-15T23:03:57.816Z,12.45
2017-07-15T23:06:25.571Z,12.38
2017-07-15T23:08:53.290Z,12.46
2017-07-15T23:11:21.079Z,12.51
2017-07-15T23:13:48.820Z,12.45
2017-07-15T23:16:16.581Z,12.45
2017-07-15T23:18:44.385Z,12.53
2017-07-15T23:21:12.218Z,12.46
2017-07-15T23:23:39.965Z,12.35
2017-07-15T23:26:07.744Z,12.48
2017-07-15T23:28:35.518Z,12.40
2017-07-15T23:31:03.369Z,12.36
2017-07-15T23:33:31.142Z,12.29
2017-07-15T23:35:58.864Z,12.27
2017-07-15T23:38:26.746Z,12.24
2017-07-15T23:40:54.510Z,12.11
2017-07-15T23:43:22.263Z,12.08
2017-07-15T23:45:50.055Z,12.15
2017-07-15T23:48:17.809Z,12.07
2017-07-15T23:50:45.574Z,12.05
2017-07-15T23:53:13.310Z,11.97
2017-07-15T23:55:41.146Z,11.93
2017-07-15T23:58:08.905Z,12.00
